createdAt,value
2017-10-11T17:59:32.322Z,1009.32
2017-10-11T18:00:32.290Z,1009.35
2017-10-11T18:02:26.723Z,1009.40
2017-10-11T18:03:26.702Z,1009.39
2017-10-11T18:05:21.954Z,1009.41
2017-10-11T18:07:35.753Z,1009.42
2017-10-11T18:08:35.202Z,1009.38
2017-10-11T18:10:28.597Z,1009.33
2017-10-11T18:11:28.538Z,1009.31
2017-10-11T18:13:21.290Z,1009.32
2017-10-11T18:14:21.370Z,1009.30
2017-10-11T18:16:15.041Z,1009.29
2017-10-11T18:17:14.317Z,1009.31
2017-10-11T18:19:07.609Z,1009.33
2017-10-11T18:20:07.648Z,1009.30
2017-10-11T18:22:00.996Z,1009.25
2017-10-11T18:23:00.872Z,1009.25
2017-10-11T18:24:54.044Z,1009.26
2017-10-11T18:25:53.952Z,1009.29
2017-10-11T18:27:46.944Z,1009.30
2017-10-11T18:28:46.997Z,1009.26
2017-10-11T18:30:40.022Z,1009.28
2017-10-11T18:31:40.157Z,1009.30
2017-10-11T18:33:33.029Z,1009.30
2017-10-11T18:34:33.045Z,1009.32
2017-10-11T18:36:26.078Z,1009.31
2017-10-11T18:37:26.148Z,1009.34
2017-10-11T18:39:19.132Z,1009.32
2017-10-11T18:40:19.179Z,1009.29
2017-10-11T18:42:13.215Z,1009.34
2017-10-11T18:43:13.229Z,1009.35
2017-10-11T18:45:06.244Z,1009.34
2017-10-11T18:46:06.267Z,1009.36
2017-10-11T18:47:59.332Z,1009.38
2017-10-11T18:48:59.468Z,1009.32
2017-10-11T18:50:52.372Z,1009.31
2017-10-11T18:51:52.372Z,1009.31
2017-10-11T18:53:45.365Z,1009.33
2017-10-11T18:54:45.468Z,1009.29
2017-10-11T18:56:38.524Z,1009.31
2017-10-11T18:57:38.404Z,1009.27
2017-10-11T18:59:31.603Z,1009.23
2017-10-11T19:00:31.588Z,1009.22
2017-10-11T19:02:24.555Z,1009.16
2017-10-11T19:03:24.611Z,1009.13
2017-10-11T19:05:17.619Z,1009.09
2017-10-11T19:06:17.635Z,1009.14
2017-10-11T19:08:11.157Z,1009.07
2017-10-11T19:09:11.247Z,1009.11
2017-10-11T19:11:04.163Z,1009.04
2017-10-11T19:12:04.149Z,1009.04
2017-10-11T19:13:57.654Z,1009.10
2017-10-11T19:14:57.229Z,1009.13
2017-10-11T19:16:57.372Z,1009.16
2017-10-11T19:19:45.958Z,1009.18
2017-10-11T19:20:46.053Z,1009.22
2017-10-11T19:22:39.054Z,1009.22
2017-10-11T19:23:39.078Z,1009.26
2017-10-11T19:25:32.069Z,1009.19
2017-10-11T19:26:32.086Z,1009.16
2017-10-11T19:28:25.125Z,1009.16
2017-10-11T19:29:25.158Z,1009.23
2017-10-11T19:31:32.174Z,1009.24
2017-10-11T19:32:18.142Z,1009.18
2017-10-11T19:34:11.163Z,1009.17
2017-10-11T19:35:11.181Z,1009.13
2017-10-11T19:37:04.739Z,1009.12
2017-10-11T19:38:04.739Z,1009.15
2017-10-11T19:39:57.721Z,1009.17
2017-10-11T19:40:57.762Z,1009.12
2017-10-11T19:42:50.786Z,1009.11
2017-10-11T19:43:50.788Z,1009.09
2017-10-11T19:45:43.793Z,1009.08
2017-10-11T19:46:43.827Z,1009.07
2017-10-11T19:48:36.866Z,1009.03
2017-10-11T19:49:36.829Z,1009.05
2017-10-11T19:51:29.836Z,1009.07
2017-10-11T19:52:29.851Z,1009.06
2017-10-11T19:54:22.924Z,1009.08
2017-10-11T19:55:22.885Z,1009.09
2017-10-11T19:57:15.900Z,1009.10
2017-10-11T19:58:16.012Z,1009.16
2017-10-11T20:00:09.463Z,1009.17
2017-10-11T20:01:09.048Z,1009.12
2017-10-11T20:03:01.992Z,1009.14
